Gurley, Nebraska
Current Conditions -  °F | °C
As of 10:53 AM on Monday 22 Dec 2014 (Local Time) from KSNY Reporting Station
Clear Clear  
Wind Chill: 27°   Ceiling: Unl
Heat Index: 38°   Visibility: 10mi
Dew Point: 21°   Wind: 23mph
Humidity: 51%   Direction: 320°NW
Pressure: 29.66"   Gusts: 32mph
Location:  41.32°N, 102.97°W
Report Text: KSNY 221753Z AUTO 32020G28KT 10SM CLR 03/M06 A2966 RMK AO2 PK WND 32028/1738 SLP049 60000 T00331061 10039 21017 58005
Loading
Personal Weather Stations






























Interactive Weather Map New forecast layout! Learn more

10-Day Weather Forecast

Advertisements
Track Severe Weather on mobile